Doris Moran — WRU2125 — position and weather

sailwx.info

Track history (hours):
 
Tides and Currents Weather Stations Pressure Air Temp Water Temp Dewpoint Dewpoint Depression Visibility Wind Speed Wind Dir Waves Ship Positions

Doris Moran

Owner: MORAN TOWING CORPORATION, New Canaan, CT. More information available from US FCC via Universal Licensing System and Coast Guard Vessel Documentation Center.

Last reported at 2016-Jul-24 08:31 UTC. Time now 2016-Jul-24 10:43 UTC.
Position N 40°39' W 074°06'.

Length 151 m; draft 5.3 m.

Type: . MMSI: 366939790.

Date/timePositionNaut miles runAvg speedWind from/ knotsBaromVisibWave heightAir tempDewpointWater temp
2016-Jul-24 08:31N 40°39' W 074°06'0 0.0
2016-Jul-24 07:31N 40°39' W 074°06'0 0.0
2016-Jul-24 06:33N 40°39' W 074°06'0 0.0
2016-Jul-24 05:33N 40°39' W 074°06'3 2.8
2016-Jul-24 04:33N 40°37' W 074°03'2 2.5
2016-Jul-24 03:33N 40°35' W 074°02'3 3.3
2016-Jul-24 02:32N 40°32' W 074°01'42 8.3
2016-Jul-23 21:31N 39°50' W 073°58'9 9.3
2016-Jul-23 20:33N 39°41' W 074°01'10 9.4
2016-Jul-23 19:32N 39°32' W 074°06'48 9.4
2016-Jul-23 14:23N 38°55' W 074°45'7 8.6
2016-Jul-23 13:33N 38°50' W 074°52'8 6.9
2016-Jul-23 12:20N 38°50' W 075°02'7 8.5
2016-Jul-23 11:33N 38°56' W 075°05'6 5.9
2016-Jul-23 10:33N 39°01' W 075°09'1111.0
2016-Jul-23 09:33N 39°10' W 075°16'1212.1
2016-Jul-23 08:33N 39°20' W 075°25'1110.6
2016-Jul-23 07:33N 39°29' W 075°34'5 5.4
2016-Jul-23 06:34N 39°33' W 075°37'17 8.7
2016-Jul-23 04:33N 39°28' W 075°59'1010.3
2016-Jul-23 03:33N 39°21' W 076°09'10 9.9
2016-Jul-23 02:33N 39°13' W 076°15'8 7.6
2016-Jul-23 01:33N 39°10' W 076°25'3 3.3
2016-Jul-23 00:33N 39°13' W 076°28'0 0.0
2016-Jul-22 23:33N 39°13' W 076°28'0 0.0
2016-Jul-22 22:33N 39°13' W 076°28'0 0.0
2016-Jul-22 21:30N 39°13' W 076°28'0 0.0
2016-Jul-22 20:33N 39°13' W 076°28'0 0.0
2016-Jul-22 19:30N 39°13' W 076°28'0 0.0
2016-Jul-22 18:33N 39°13' W 076°28'0 0.0
2016-Jul-22 17:30N 39°13' W 076°28'0 0.0
2016-Jul-22 16:30N 39°13' W 076°28'0 0.0
2016-Jul-22 15:30N 39°13' W 076°28'0 0.0
2016-Jul-22 14:33N 39°13' W 076°28'0 0.0
2016-Jul-22 13:33N 39°13' W 076°28'0 0.0
2016-Jul-22 12:33N 39°13' W 076°28'0 0.0
2016-Jul-22 11:33N 39°13' W 076°28'0 0.0
2016-Jul-22 10:33N 39°13' W 076°28'0 0.0
2016-Jul-22 09:33N 39°13' W 076°28'0 0.0
2016-Jul-22 04:30N 39°13' W 076°28'0 0.0
2016-Jul-22 03:24N 39°13' W 076°28'0 0.0
2016-Jul-22 02:30N 39°13' W 076°28'0 0.0
2016-Jul-22 01:18N 39°13' W 076°28'1 0.2
2016-Jul-21 21:33N 39°12' W 076°28'1 0.9
2016-Jul-21 20:31N 39°13' W 076°28'0 0.0
2016-Jul-21 19:32N 39°13' W 076°28'0 0.1
2016-Jul-21 18:27N 39°13' W 076°28'0 0.0
2016-Jul-21 13:13N 39°13' W 076°28'0 0.0
2016-Jul-21 12:31N 39°13' W 076°28'0 0.0
2016-Jul-21 11:34N 39°13' W 076°28'2 2.4
2016-Jul-21 10:33N 39°11' W 076°26'7 7.0
2016-Jul-21 09:33N 39°11' W 076°17'10 9.9
2016-Jul-21 08:34N 39°20' W 076°11'10 9.7
2016-Jul-21 07:33N 39°26' W 076°01'10 9.6
2016-Jul-21 06:33N 39°32' W 075°52'10 9.9
2016-Jul-21 05:33N 39°33' W 075°39'5 4.9
2016-Jul-21 04:33N 39°32' W 075°33'3 3.3
2016-Jul-21 03:33N 39°29' W 075°34'6 5.6
2016-Jul-21 02:33N 39°24' W 075°30'7 6.9
2016-Jul-21 01:33N 39°19' W 075°24'7 6.9
2016-Jul-21 00:33N 39°14' W 075°18'7 6.9
2016-Jul-20 23:33N 39°08' W 075°13'54 5.4
2016-Jul-20 13:27N 39°28' W 074°08'1010.9
2016-Jul-20 12:33N 39°36' W 074°01'1110.9
2016-Jul-20 11:33N 39°47' W 073°58'1110.9
2016-Jul-20 10:30N 39°58' W 073°57'3210.2
2016-Jul-20 07:23N 40°30' W 073°56'810.1
2016-Jul-20 06:34N 40°36' W 074°03'6 5.6
2016-Jul-20 05:33N 40°42' W 074°02'5 0.2
2016-Jul-19 04:33N 40°39' W 074°07'0 0.0
2016-Jul-19 03:33N 40°39' W 074°07'0 0.0
2016-Jul-19 02:33N 40°39' W 074°07'0 0.2
2016-Jul-19 01:34N 40°39' W 074°07'5 5.2
2016-Jul-19 00:32N 40°41' W 074°00'7 6.8
2016-Jul-18 23:33N 40°39' W 074°08'3 3.2
2016-Jul-18 22:32N 40°42' W 074°09'1 1.4
2016-Jul-18 21:33N 40°41' W 074°08'1 1.1
2016-Jul-18 20:24N 40°42' W 074°09'0 0.0
2016-Jul-18 19:27N 40°42' W 074°09'2 1.8
2016-Jul-18 18:33N 40°40' W 074°08'3 2.7
2016-Jul-18 17:33N 40°39' W 074°05'1 1.1
2016-Jul-18 16:33N 40°38' W 074°04'3 3.0
2016-Jul-18 15:31N 40°38' W 074°08'0 0.0
2016-Jul-18 14:31N 40°38' W 074°08'0 0.0
2016-Jul-18 13:31N 40°38' W 074°08'0 0.0
2016-Jul-18 12:31N 40°38' W 074°08'2 1.9
2016-Jul-18 11:33N 40°40' W 074°08'0 0.1
2016-Jul-18 10:33N 40°40' W 074°08'2 1.6
2016-Jul-18 09:29N 40°38' W 074°08'0 0.0
2016-Jul-18 08:17N 40°38' W 074°08'0 0.0
2016-Jul-18 06:20N 40°38' W 074°08'0 0.0
2016-Jul-18 03:26N 40°38' W 074°08'0 0.0
2016-Jul-17 23:20N 40°38' W 074°08'0 0.0
2016-Jul-17 22:32N 40°38' W 074°08'0 0.0
2016-Jul-17 13:32N 40°38' W 074°08'0 0.0
2016-Jul-17 08:08N 40°38' W 074°08'0 0.0
2016-Jul-17 07:26N 40°38' W 074°08'0 0.0
2016-Jul-17 06:23N 40°38' W 074°08'0 0.0
2016-Jul-17 04:32N 40°38' W 074°08'0 0.0
2016-Jul-17 03:32N 40°38' W 074°08'0 0.0
2016-Jul-17 02:32N 40°38' W 074°08'0 0.0
2016-Jul-17 01:23N 40°38' W 074°08'0 0.0
2016-Jul-17 00:32N 40°38' W 074°08'2 2.2
2016-Jul-16 23:33N 40°41' W 074°08'0 0.3
2016-Jul-16 22:33N 40°40' W 074°08'2 0.8
2016-Jul-16 20:24N 40°38' W 074°08'0 0.0
2016-Jul-16 19:24N 40°38' W 074°08'0 0.0
2016-Jul-16 17:33N 40°38' W 074°08'0 0.0
2016-Jul-16 16:27N 40°38' W 074°08'0 0.0
2016-Jul-16 15:34N 40°38' W 074°08'0 0.0
2016-Jul-16 14:33N 40°38' W 074°08'0 0.0
2016-Jul-16 13:33N 40°38' W 074°08'0 0.0
2016-Jul-16 12:33N 40°38' W 074°08'0 0.0
2016-Jul-16 11:33N 40°38' W 074°08'0 0.0
2016-Jul-16 10:33N 40°38' W 074°08'0 0.0
2016-Jul-16 09:34N 40°38' W 074°08'0 0.0
2016-Jul-16 08:33N 40°38' W 074°08'0 0.0
2016-Jul-16 07:33N 40°38' W 074°08'0 0.0
2016-Jul-16 06:33N 40°38' W 074°08'0 0.0
2016-Jul-16 04:33N 40°38' W 074°08'0 0.0
2016-Jul-16 03:33N 40°38' W 074°08'0 0.0
2016-Jul-16 02:33N 40°38' W 074°08'0 0.0
2016-Jul-16 01:33N 40°38' W 074°08'0 0.0
2016-Jul-16 00:33N 40°38' W 074°08'0 0.0
2016-Jul-15 23:33N 40°38' W 074°08'0 0.0
2016-Jul-15 22:33N 40°38' W 074°08'0 0.0
2016-Jul-15 21:33N 40°38' W 074°08'0 0.0
2016-Jul-15 20:33N 40°38' W 074°08'0 0.0
2016-Jul-15 19:33N 40°38' W 074°08'0 0.0
2016-Jul-15 18:33N 40°38' W 074°08'4 1.8
2016-Jul-15 16:30N 40°37' W 074°12'4 3.8
2016-Jul-15 15:33N 40°38' W 074°08'0 0.0
2016-Jul-15 14:33N 40°38' W 074°08'0 0.0
2016-Jul-15 13:33N 40°38' W 074°08'0 0.0
2016-Jul-15 12:33N 40°38' W 074°08'0 0.0
2016-Jul-15 11:33N 40°38' W 074°08'1 0.8
2016-Jul-15 10:33N 40°38' W 074°09'1 1.0
2016-Jul-15 09:33N 40°39' W 074°07'0 0.3
2016-Jul-15 08:33N 40°38' W 074°08'6 6.1
2016-Jul-15 07:33N 40°41' W 074°01'3 3.4
2016-Jul-15 06:33N 40°39' W 074°04'5 4.9
2016-Jul-15 05:33N 40°42' W 074°09'0 0.0
2016-Jul-15 04:29N 40°42' W 074°09'0 0.0
2016-Jul-15 03:28N 40°42' W 074°09'3 3.2
2016-Jul-15 02:22N 40°38' W 074°08'0 0.0
2016-Jul-15 01:32N 40°38' W 074°08'0 0.0
2016-Jul-15 00:32N 40°38' W 074°08'0 0.0
2016-Jul-14 23:33N 40°38' W 074°08'0 0.0
2016-Jul-14 21:27N 40°38' W 074°08'1 1.4
2016-Jul-14 20:28N 40°39' W 074°10'1 1.0
2016-Jul-14 19:06N 40°38' W 074°08'0 0.0
2016-Jul-14 18:33N 40°38' W 074°08'0 0.0
2016-Jul-14 17:33N 40°38' W 074°08'0 0.0
2016-Jul-14 16:34N 40°38' W 074°08'0 0.0
2016-Jul-14 15:33N 40°38' W 074°08'0 0.0
2016-Jul-14 14:33N 40°38' W 074°08'0 0.0
2016-Jul-14 13:33N 40°38' W 074°08'4 3.5
2016-Jul-14 12:25N 40°36' W 074°12'1 0.5
2016-Jul-14 11:29N 40°36' W 074°12'  
Track history (hours):
 
Tides and Currents Weather Stations Pressure Air Temp Water Temp Dewpoint Dewpoint Depression Visibility Wind Speed Wind Dir Waves Ship Positions

Doris Moran

Owner: MORAN TOWING CORPORATION, New Canaan, CT. More information available from US FCC via Universal Licensing System and Coast Guard Vessel Documentation Center.

Last reported at 2016-Jul-24 08:31 UTC. Time now 2016-Jul-24 10:43 UTC.
Position N 40°39' W 074°06'.

Length 151 m; draft 5.3 m.

Type: . MMSI: 366939790.

Date/timePositionNaut miles runAvg speedWind from/ knotsBaromVisibWave heightAir tempDewpointWater temp
2016-Jul-24 08:31N 40°39' W 074°06'0 0.0
2016-Jul-24 07:31N 40°39' W 074°06'0 0.0
2016-Jul-24 06:33N 40°39' W 074°06'0 0.0
2016-Jul-24 05:33N 40°39' W 074°06'3 2.8
2016-Jul-24 04:33N 40°37' W 074°03'2 2.5
2016-Jul-24 03:33N 40°35' W 074°02'3 3.3
2016-Jul-24 02:32N 40°32' W 074°01'42 8.3
2016-Jul-23 21:31N 39°50' W 073°58'9 9.3
2016-Jul-23 20:33N 39°41' W 074°01'10 9.4
2016-Jul-23 19:32N 39°32' W 074°06'48 9.4
2016-Jul-23 14:23N 38°55' W 074°45'7 8.6
2016-Jul-23 13:33N 38°50' W 074°52'8 6.9
2016-Jul-23 12:20N 38°50' W 075°02'7 8.5
2016-Jul-23 11:33N 38°56' W 075°05'6 5.9
2016-Jul-23 10:33N 39°01' W 075°09'1111.0
2016-Jul-23 09:33N 39°10' W 075°16'1212.1
2016-Jul-23 08:33N 39°20' W 075°25'1110.6
2016-Jul-23 07:33N 39°29' W 075°34'5 5.4
2016-Jul-23 06:34N 39°33' W 075°37'17 8.7
2016-Jul-23 04:33N 39°28' W 075°59'1010.3
2016-Jul-23 03:33N 39°21' W 076°09'10 9.9
2016-Jul-23 02:33N 39°13' W 076°15'8 7.6
2016-Jul-23 01:33N 39°10' W 076°25'3 3.3
2016-Jul-23 00:33N 39°13' W 076°28'0 0.0
2016-Jul-22 23:33N 39°13' W 076°28'0 0.0
2016-Jul-22 22:33N 39°13' W 076°28'0 0.0
2016-Jul-22 21:30N 39°13' W 076°28'0 0.0
2016-Jul-22 20:33N 39°13' W 076°28'0 0.0
2016-Jul-22 19:30N 39°13' W 076°28'0 0.0
2016-Jul-22 18:33N 39°13' W 076°28'0 0.0
2016-Jul-22 17:30N 39°13' W 076°28'0 0.0
2016-Jul-22 16:30N 39°13' W 076°28'0 0.0
2016-Jul-22 15:30N 39°13' W 076°28'0 0.0
2016-Jul-22 14:33N 39°13' W 076°28'0 0.0
2016-Jul-22 13:33N 39°13' W 076°28'0 0.0
2016-Jul-22 12:33N 39°13' W 076°28'0 0.0
2016-Jul-22 11:33N 39°13' W 076°28'0 0.0
2016-Jul-22 10:33N 39°13' W 076°28'0 0.0
2016-Jul-22 09:33N 39°13' W 076°28'0 0.0
2016-Jul-22 04:30N 39°13' W 076°28'0 0.0
2016-Jul-22 03:24N 39°13' W 076°28'0 0.0
2016-Jul-22 02:30N 39°13' W 076°28'0 0.0
2016-Jul-22 01:18N 39°13' W 076°28'1 0.2
2016-Jul-21 21:33N 39°12' W 076°28'1 0.9
2016-Jul-21 20:31N 39°13' W 076°28'0 0.0
2016-Jul-21 19:32N 39°13' W 076°28'0 0.1
2016-Jul-21 18:27N 39°13' W 076°28'0 0.0
2016-Jul-21 13:13N 39°13' W 076°28'0 0.0
2016-Jul-21 12:31N 39°13' W 076°28'0 0.0
2016-Jul-21 11:34N 39°13' W 076°28'2 2.4
2016-Jul-21 10:33N 39°11' W 076°26'7 7.0
2016-Jul-21 09:33N 39°11' W 076°17'10 9.9
2016-Jul-21 08:34N 39°20' W 076°11'10 9.7
2016-Jul-21 07:33N 39°26' W 076°01'10 9.6
2016-Jul-21 06:33N 39°32' W 075°52'10 9.9
2016-Jul-21 05:33N 39°33' W 075°39'5 4.9
2016-Jul-21 04:33N 39°32' W 075°33'3 3.3
2016-Jul-21 03:33N 39°29' W 075°34'6 5.6
2016-Jul-21 02:33N 39°24' W 075°30'7 6.9
2016-Jul-21 01:33N 39°19' W 075°24'7 6.9
2016-Jul-21 00:33N 39°14' W 075°18'7 6.9
2016-Jul-20 23:33N 39°08' W 075°13'54 5.4
2016-Jul-20 13:27N 39°28' W 074°08'1010.9
2016-Jul-20 12:33N 39°36' W 074°01'1110.9
2016-Jul-20 11:33N 39°47' W 073°58'1110.9
2016-Jul-20 10:30N 39°58' W 073°57'3210.2
2016-Jul-20 07:23N 40°30' W 073°56'810.1
2016-Jul-20 06:34N 40°36' W 074°03'6 5.6
2016-Jul-20 05:33N 40°42' W 074°02'5 0.2
2016-Jul-19 04:33N 40°39' W 074°07'0 0.0
2016-Jul-19 03:33N 40°39' W 074°07'0 0.0
2016-Jul-19 02:33N 40°39' W 074°07'0 0.2
2016-Jul-19 01:34N 40°39' W 074°07'5 5.2
2016-Jul-19 00:32N 40°41' W 074°00'7 6.8
2016-Jul-18 23:33N 40°39' W 074°08'3 3.2
2016-Jul-18 22:32N 40°42' W 074°09'1 1.4
2016-Jul-18 21:33N 40°41' W 074°08'1 1.1
2016-Jul-18 20:24N 40°42' W 074°09'0 0.0
2016-Jul-18 19:27N 40°42' W 074°09'2 1.8
2016-Jul-18 18:33N 40°40' W 074°08'3 2.7
2016-Jul-18 17:33N 40°39' W 074°05'1 1.1
2016-Jul-18 16:33N 40°38' W 074°04'3 3.0
2016-Jul-18 15:31N 40°38' W 074°08'0 0.0
2016-Jul-18 14:31N 40°38' W 074°08'0 0.0
2016-Jul-18 13:31N 40°38' W 074°08'0 0.0
2016-Jul-18 12:31N 40°38' W 074°08'2 1.9
2016-Jul-18 11:33N 40°40' W 074°08'0 0.1
2016-Jul-18 10:33N 40°40' W 074°08'2 1.6
2016-Jul-18 09:29N 40°38' W 074°08'0 0.0
2016-Jul-18 08:17N 40°38' W 074°08'0 0.0
2016-Jul-18 06:20N 40°38' W 074°08'0 0.0
2016-Jul-18 03:26N 40°38' W 074°08'0 0.0
2016-Jul-17 23:20N 40°38' W 074°08'0 0.0
2016-Jul-17 22:32N 40°38' W 074°08'0 0.0
2016-Jul-17 13:32N 40°38' W 074°08'0 0.0
2016-Jul-17 08:08N 40°38' W 074°08'0 0.0
2016-Jul-17 07:26N 40°38' W 074°08'0 0.0
2016-Jul-17 06:23N 40°38' W 074°08'0 0.0
2016-Jul-17 04:32N 40°38' W 074°08'0 0.0
2016-Jul-17 03:32N 40°38' W 074°08'0 0.0
2016-Jul-17 02:32N 40°38' W 074°08'0 0.0
2016-Jul-17 01:23N 40°38' W 074°08'0 0.0
2016-Jul-17 00:32N 40°38' W 074°08'2 2.2
2016-Jul-16 23:33N 40°41' W 074°08'0 0.3
2016-Jul-16 22:33N 40°40' W 074°08'2 0.8
2016-Jul-16 20:24N 40°38' W 074°08'0 0.0
2016-Jul-16 19:24N 40°38' W 074°08'0 0.0
2016-Jul-16 17:33N 40°38' W 074°08'0 0.0
2016-Jul-16 16:27N 40°38' W 074°08'0 0.0
2016-Jul-16 15:34N 40°38' W 074°08'0 0.0
2016-Jul-16 14:33N 40°38' W 074°08'0 0.0
2016-Jul-16 13:33N 40°38' W 074°08'0 0.0
2016-Jul-16 12:33N 40°38' W 074°08'0 0.0
2016-Jul-16 11:33N 40°38' W 074°08'0 0.0
2016-Jul-16 10:33N 40°38' W 074°08'0 0.0
2016-Jul-16 09:34N 40°38' W 074°08'0 0.0
2016-Jul-16 08:33N 40°38' W 074°08'0 0.0
2016-Jul-16 07:33N 40°38' W 074°08'0 0.0
2016-Jul-16 06:33N 40°38' W 074°08'0 0.0
2016-Jul-16 04:33N 40°38' W 074°08'0 0.0
2016-Jul-16 03:33N 40°38' W 074°08'0 0.0
2016-Jul-16 02:33N 40°38' W 074°08'0 0.0
2016-Jul-16 01:33N 40°38' W 074°08'0 0.0
2016-Jul-16 00:33N 40°38' W 074°08'0 0.0
2016-Jul-15 23:33N 40°38' W 074°08'0 0.0
2016-Jul-15 22:33N 40°38' W 074°08'0 0.0
2016-Jul-15 21:33N 40°38' W 074°08'0 0.0
2016-Jul-15 20:33N 40°38' W 074°08'0 0.0
2016-Jul-15 19:33N 40°38' W 074°08'0 0.0
2016-Jul-15 18:33N 40°38' W 074°08'4 1.8
2016-Jul-15 16:30N 40°37' W 074°12'4 3.8
2016-Jul-15 15:33N 40°38' W 074°08'0 0.0
2016-Jul-15 14:33N 40°38' W 074°08'0 0.0
2016-Jul-15 13:33N 40°38' W 074°08'0 0.0
2016-Jul-15 12:33N 40°38' W 074°08'0 0.0
2016-Jul-15 11:33N 40°38' W 074°08'1 0.8
2016-Jul-15 10:33N 40°38' W 074°09'1 1.0
2016-Jul-15 09:33N 40°39' W 074°07'0 0.3
2016-Jul-15 08:33N 40°38' W 074°08'6 6.1
2016-Jul-15 07:33N 40°41' W 074°01'3 3.4
2016-Jul-15 06:33N 40°39' W 074°04'5 4.9
2016-Jul-15 05:33N 40°42' W 074°09'0 0.0
2016-Jul-15 04:29N 40°42' W 074°09'0 0.0
2016-Jul-15 03:28N 40°42' W 074°09'3 3.2
2016-Jul-15 02:22N 40°38' W 074°08'0 0.0
2016-Jul-15 01:32N 40°38' W 074°08'0 0.0
2016-Jul-15 00:32N 40°38' W 074°08'0 0.0
2016-Jul-14 23:33N 40°38' W 074°08'0 0.0
2016-Jul-14 21:27N 40°38' W 074°08'1 1.4
2016-Jul-14 20:28N 40°39' W 074°10'1 1.0
2016-Jul-14 19:06N 40°38' W 074°08'0 0.0
2016-Jul-14 18:33N 40°38' W 074°08'0 0.0
2016-Jul-14 17:33N 40°38' W 074°08'0 0.0
2016-Jul-14 16:34N 40°38' W 074°08'0 0.0
2016-Jul-14 15:33N 40°38' W 074°08'0 0.0
2016-Jul-14 14:33N 40°38' W 074°08'0 0.0
2016-Jul-14 13:33N 40°38' W 074°08'4 3.5
2016-Jul-14 12:25N 40°36' W 074°12'1 0.5
2016-Jul-14 11:29N 40°36' W 074°12'  

Dump ship's entire track history